createdAt,value
2017-02-05T00:00:49.170Z,0
2017-02-05T00:01:58.451Z,0
2017-02-05T00:03:08.612Z,0
2017-02-05T00:04:18.349Z,0
2017-02-05T00:05:28.065Z,0
2017-02-05T00:06:37.404Z,0
2017-02-05T00:07:47.135Z,0
2017-02-05T00:08:57.302Z,0
2017-02-05T00:10:06.589Z,0
2017-02-05T00:11:17.181Z,0
2017-02-05T00:12:27.398Z,0
2017-02-05T00:13:37.555Z,0
2017-02-05T00:14:47.284Z,0
2017-02-05T00:15:56.572Z,0
2017-02-05T00:17:06.298Z,0
2017-02-05T00:18:16.078Z,0
2017-02-05T00:19:26.237Z,0
2017-02-05T00:20:35.966Z,0
2017-02-05T00:21:45.680Z,0
2017-02-05T00:22:55.399Z,0
2017-02-05T00:24:04.737Z,0
2017-02-05T00:25:14.027Z,0
2017-02-05T00:26:23.351Z,0
2017-02-05T00:27:32.637Z,0
2017-02-05T00:28:41.969Z,0
2017-02-05T00:29:51.304Z,0
2017-02-05T00:31:01.457Z,0
2017-02-05T00:32:11.180Z,0
2017-02-05T00:33:20.902Z,0
2017-02-05T00:34:31.068Z,0
2017-02-05T00:35:40.405Z,0
2017-02-05T00:36:50.581Z,0
2017-02-05T00:38:01.196Z,0
2017-02-05T00:39:10.929Z,0
2017-02-05T00:40:20.649Z,0
2017-02-05T00:41:30.864Z,0
2017-02-05T00:42:41.025Z,0
2017-02-05T00:43:50.318Z,0
2017-02-05T00:45:00.041Z,0
2017-02-05T00:46:10.642Z,0
2017-02-05T00:47:20.852Z,0
2017-02-05T00:48:31.459Z,0
2017-02-05T00:49:41.180Z,0
2017-02-05T00:50:50.468Z,0
2017-02-05T00:51:59.754Z,0
2017-02-05T00:53:09.087Z,0
2017-02-05T00:54:18.372Z,0
2017-02-05T00:55:27.654Z,0
2017-02-05T00:56:36.938Z,0
2017-02-05T00:57:46.660Z,0
2017-02-05T00:58:56.860Z,0
2017-02-05T01:00:07.041Z,0
2017-02-05T01:01:17.197Z,0
2017-02-05T01:02:26.922Z,0
2017-02-05T01:03:36.210Z,0
2017-02-05T01:04:45.984Z,0
2017-02-05T01:05:55.309Z,0
2017-02-05T01:07:04.593Z,0
2017-02-05T01:08:14.754Z,0
2017-02-05T01:09:24.908Z,0
2017-02-05T01:10:34.686Z,0
2017-02-05T01:11:43.970Z,0
2017-02-05T01:12:53.256Z,0
2017-02-05T01:14:02.551Z,0
2017-02-05T01:15:12.275Z,0
2017-02-05T01:16:22.063Z,0
2017-02-05T01:17:31.348Z,0
2017-02-05T01:18:40.640Z,0
2017-02-05T01:19:50.807Z,0
2017-02-05T01:21:01.420Z,0
2017-02-05T01:22:11.197Z,0
2017-02-05T01:23:20.488Z,0
2017-02-05T01:24:30.642Z,0
2017-02-05T01:25:40.367Z,0
2017-02-05T01:26:50.538Z,0
2017-02-05T01:27:59.879Z,0
2017-02-05T01:29:09.168Z,0
2017-02-05T01:30:19.320Z,0
2017-02-05T01:31:28.605Z,0
2017-02-05T01:32:38.775Z,0
2017-02-05T01:33:48.981Z,0
2017-02-05T01:34:58.266Z,0
2017-02-05T01:36:07.581Z,0
2017-02-05T01:37:17.740Z,0
2017-02-05T01:38:27.039Z,0
2017-02-05T01:39:37.690Z,0
2017-02-05T01:40:47.855Z,0
2017-02-05T01:41:58.027Z,0
2017-02-05T01:43:08.188Z,0
2017-02-05T01:44:18.348Z,0
2017-02-05T01:45:28.563Z,0
2017-02-05T01:46:38.288Z,0
2017-02-05T01:47:48.010Z,0
2017-02-05T01:48:57.297Z,0
2017-02-05T01:50:07.451Z,0
2017-02-05T01:51:17.660Z,0
2017-02-05T01:52:27.825Z,0
2017-02-05T01:53:37.554Z,0
2017-02-05T01:54:47.286Z,0
2017-02-05T01:55:57.463Z,0
2017-02-05T01:57:07.237Z,0
2017-02-05T01:58:16.523Z,0
2017-02-05T01:59:26.251Z,0
2017-02-05T02:00:36.846Z,0
2017-02-05T02:01:46.570Z,0
2017-02-05T02:02:55.903Z,0
2017-02-05T02:04:05.624Z,0
2017-02-05T02:05:14.908Z,0
2017-02-05T02:06:25.517Z,0
2017-02-05T02:07:35.251Z,0
2017-02-05T02:08:45.021Z,0
2017-02-05T02:09:55.185Z,0
2017-02-05T02:11:04.475Z,0
2017-02-05T02:12:14.635Z,0
2017-02-05T02:13:24.354Z,0
2017-02-05T02:14:34.131Z,0
2017-02-05T02:15:43.416Z,0
2017-02-05T02:16:53.143Z,0
2017-02-05T02:18:03.306Z,0
2017-02-05T02:19:12.593Z,0
2017-02-05T02:20:22.367Z,0
2017-02-05T02:21:32.532Z,0
2017-02-05T02:22:42.264Z,0
2017-02-05T02:23:51.988Z,0
2017-02-05T02:25:02.137Z,0
2017-02-05T02:26:13.218Z,0
2017-02-05T02:27:22.935Z,0
2017-02-05T02:28:32.219Z,0
2017-02-05T02:29:41.942Z,0
2017-02-05T02:30:51.665Z,0
2017-02-05T02:32:01.449Z,0
2017-02-05T02:33:11.190Z,0
2017-02-05T02:34:20.471Z,0
2017-02-05T02:35:29.756Z,0
2017-02-05T02:36:39.044Z,0
2017-02-05T02:37:48.820Z,0
2017-02-05T02:38:58.982Z,0
2017-02-05T02:40:09.131Z,0
2017-02-05T02:41:19.300Z,0
2017-02-05T02:42:29.463Z,0
2017-02-05T02:43:39.244Z,0
2017-02-05T02:44:48.959Z,0
2017-02-05T02:45:59.123Z,0
2017-02-05T02:47:08.404Z,0
2017-02-05T02:48:17.685Z,0
2017-02-05T02:49:27.018Z,0
2017-02-05T02:50:36.298Z,0
2017-02-05T02:51:45.599Z,0
2017-02-05T02:52:55.322Z,0
2017-02-05T02:54:05.042Z,0
2017-02-05T02:55:15.260Z,0
2017-02-05T02:56:24.548Z,0
2017-02-05T02:57:34.271Z,0
2017-02-05T02:58:44.872Z,0
2017-02-05T02:59:54.593Z,0
2017-02-05T03:01:03.943Z,0
2017-02-05T03:02:13.667Z,0
2017-02-05T03:03:22.951Z,0
2017-02-05T03:04:33.114Z,0
2017-02-05T03:05:42.399Z,0
2017-02-05T03:06:52.616Z,0
2017-02-05T03:08:02.334Z,0
2017-02-05T03:09:12.057Z,0
2017-02-05T03:10:21.780Z,0
2017-02-05T03:11:31.500Z,0
2017-02-05T03:12:42.174Z,0
2017-02-05T03:13:51.899Z,0
2017-02-05T03:15:01.625Z,0
2017-02-05T03:16:11.347Z,0
2017-02-05T03:17:21.514Z,0
2017-02-05T03:18:31.285Z,0
2017-02-05T03:19:41.006Z,0
2017-02-05T03:20:50.738Z,0
2017-02-05T03:22:00.901Z,0
2017-02-05T03:23:10.645Z,0
2017-02-05T03:24:19.983Z,0
2017-02-05T03:25:29.276Z,0
2017-02-05T03:26:38.553Z,0
2017-02-05T03:27:48.714Z,0
2017-02-05T03:28:58.876Z,0
2017-02-05T03:30:08.653Z,0
2017-02-05T03:31:17.946Z,0
2017-02-05T03:32:27.674Z,0
2017-02-05T03:33:37.403Z,0
2017-02-05T03:34:46.686Z,0
2017-02-05T03:35:56.467Z,0
2017-02-05T03:37:06.184Z,0
2017-02-05T03:38:16.349Z,0
2017-02-05T03:39:26.078Z,0
2017-02-05T03:40:35.372Z,0
2017-02-05T03:41:44.713Z,0
2017-02-05T03:42:53.996Z,0
2017-02-05T03:44:04.153Z,0
2017-02-05T03:45:14.319Z,0
2017-02-05T03:46:24.044Z,0
2017-02-05T03:47:34.255Z,0
2017-02-05T03:48:43.980Z,0
2017-02-05T03:49:53.701Z,0
2017-02-05T03:51:02.988Z,0
2017-02-05T03:52:12.273Z,0
2017-02-05T03:53:22.047Z,0
2017-02-05T03:54:32.648Z,0
2017-02-05T03:55:42.811Z,0
2017-02-05T03:56:52.964Z,0
2017-02-05T03:58:02.694Z,0
2017-02-05T03:59:12.909Z,0
2017-02-05T04:00:23.070Z,0
2017-02-05T04:01:32.793Z,0
2017-02-05T04:02:42.520Z,0
2017-02-05T04:03:52.675Z,0
2017-02-05T04:05:02.895Z,0
2017-02-05T04:06:12.186Z,0
2017-02-05T04:07:22.355Z,0
2017-02-05T04:08:32.078Z,0
2017-02-05T04:09:41.800Z,0
2017-02-05T04:10:52.012Z,0
2017-02-05T04:12:01.302Z,0
2017-02-05T04:13:11.469Z,0
2017-02-05T04:14:21.200Z,0
2017-02-05T04:15:30.915Z,0
2017-02-05T04:16:40.248Z,0
2017-02-05T04:17:49.974Z,0
2017-02-05T04:18:59.263Z,0
2017-02-05T04:20:08.984Z,0
2017-02-05T04:21:19.141Z,0
2017-02-05T04:22:28.914Z,0
2017-02-05T04:23:38.204Z,0
2017-02-05T04:24:48.365Z,0
2017-02-05T04:25:57.658Z,0
2017-02-05T04:27:06.947Z,0
2017-02-05T04:28:16.292Z,0
2017-02-05T04:29:26.893Z,0
2017-02-05T04:30:36.615Z,0
2017-02-05T04:31:45.936Z,0
2017-02-05T04:32:55.225Z,0
2017-02-05T04:34:04.561Z,0
2017-02-05T04:35:14.285Z,0
2017-02-05T04:36:24.004Z,0
2017-02-05T04:37:33.289Z,0
2017-02-05T04:38:42.583Z,0
2017-02-05T04:39:52.804Z,0
2017-02-05T04:41:02.088Z,0
2017-02-05T04:42:11.809Z,0
2017-02-05T04:43:21.982Z,0
2017-02-05T04:44:31.710Z,0
2017-02-05T04:45:41.054Z,0
2017-02-05T04:46:51.659Z,0
2017-02-05T04:48:01.381Z,0
2017-02-05T04:49:11.530Z,0
2017-02-05T04:50:21.263Z,0
2017-02-05T04:51:31.228Z,0
2017-02-05T04:52:40.954Z,0
2017-02-05T04:53:50.250Z,0
2017-02-05T04:54:59.974Z,0
2017-02-05T04:56:09.696Z,0
2017-02-05T04:57:19.072Z,0
2017-02-05T04:58:28.798Z,0
2017-02-05T04:59:38.523Z,0
2017-02-05T05:00:48.721Z,0
2017-02-05T05:01:58.006Z,0
2017-02-05T05:03:08.223Z,0
2017-02-05T05:04:17.535Z,0
2017-02-05T05:05:27.254Z,0
2017-02-05T05:06:36.976Z,0
2017-02-05T05:07:46.701Z,0
2017-02-05T05:08:56.474Z,0
2017-02-05T05:10:06.194Z,0
2017-02-05T05:11:16.349Z,0
2017-02-05T05:12:26.512Z,0
2017-02-05T05:13:36.678Z,0
2017-02-05T05:14:46.443Z,0
2017-02-05T05:15:56.209Z,0
2017-02-05T05:17:05.930Z,0
2017-02-05T05:18:15.219Z,0
2017-02-05T05:19:24.945Z,0
2017-02-05T05:20:34.713Z,0
2017-02-05T05:21:43.999Z,0
2017-02-05T05:22:53.294Z,0
2017-02-05T05:24:03.459Z,0
2017-02-05T05:25:13.622Z,0
2017-02-05T05:26:22.959Z,0
2017-02-05T05:27:32.244Z,0
2017-02-05T05:28:41.961Z,0
2017-02-05T05:29:51.244Z,0
2017-02-05T05:31:00.963Z,0
2017-02-05T05:32:10.301Z,0
2017-02-05T05:33:20.026Z,0
2017-02-05T05:34:29.747Z,0
2017-02-05T05:35:39.039Z,0
2017-02-05T05:36:48.325Z,0
2017-02-05T05:37:58.105Z,0
2017-02-05T05:39:07.823Z,0
2017-02-05T05:40:17.988Z,0
2017-02-05T05:41:28.148Z,0
2017-02-05T05:42:37.884Z,0
2017-02-05T05:43:48.091Z,0
2017-02-05T05:44:57.378Z,0
2017-02-05T05:46:06.669Z,0
2017-02-05T05:47:16.832Z,0
2017-02-05T05:48:26.129Z,0
2017-02-05T05:49:35.466Z,0
2017-02-05T05:50:44.753Z,0
2017-02-05T05:51:54.040Z,0
2017-02-05T05:53:04.193Z,0
2017-02-05T05:54:13.477Z,0
2017-02-05T05:55:23.697Z,0
2017-02-05T05:56:33.424Z,0
2017-02-05T05:57:43.145Z,0
2017-02-05T05:58:52.862Z,0
2017-02-05T06:00:02.580Z,0
2017-02-05T06:01:12.803Z,0
2017-02-05T06:02:23.390Z,0
2017-02-05T06:03:32.679Z,0
2017-02-05T06:04:42.407Z,0
2017-02-05T06:05:52.134Z,0
2017-02-05T06:07:01.582Z,0
2017-02-05T06:08:11.303Z,0
2017-02-05T06:09:21.021Z,0
2017-02-05T06:10:30.309Z,0
2017-02-05T06:11:40.023Z,0
2017-02-05T06:12:49.792Z,0
2017-02-05T06:13:59.513Z,0
2017-02-05T06:15:09.232Z,0
2017-02-05T06:16:18.955Z,0
2017-02-05T06:17:28.236Z,0
2017-02-05T06:18:38.009Z,0
2017-02-05T06:19:47.295Z,0
2017-02-05T06:20:56.580Z,0
2017-02-05T06:22:05.864Z,0
2017-02-05T06:23:15.584Z,0
2017-02-05T06:24:26.334Z,0
2017-02-05T06:25:35.612Z,0
2017-02-05T06:26:45.341Z,0
2017-02-05T06:27:54.616Z,0
2017-02-05T06:29:04.339Z,0
2017-02-05T06:30:13.672Z,4
2017-02-05T06:31:23.392Z,0
2017-02-05T06:32:32.675Z,4
2017-02-05T06:33:42.835Z,4
2017-02-05T06:34:52.555Z,4
2017-02-05T06:36:02.322Z,8
2017-02-05T06:37:11.615Z,4
2017-02-05T06:38:20.908Z,8
2017-02-05T06:39:30.623Z,12
2017-02-05T06:40:40.781Z,12
2017-02-05T06:41:51.046Z,16
2017-02-05T06:43:01.210Z,20
2017-02-05T06:44:10.498Z,24
2017-02-05T06:45:20.224Z,28
2017-02-05T06:46:29.513Z,32
2017-02-05T06:47:39.294Z,40
2017-02-05T06:48:49.011Z,44
2017-02-05T06:49:58.301Z,44
2017-02-05T06:51:08.457Z,52
2017-02-05T06:52:17.748Z,52
2017-02-05T06:53:27.570Z,56
2017-02-05T06:54:37.297Z,52
2017-02-05T06:55:46.586Z,60
2017-02-05T06:56:55.875Z,68
2017-02-05T06:58:06.034Z,80
2017-02-05T06:59:16.249Z,92
2017-02-05T07:00:25.975Z,100
2017-02-05T07:01:36.136Z,104
2017-02-05T07:02:45.855Z,104
2017-02-05T07:03:56.018Z,112
2017-02-05T07:05:05.803Z,132
2017-02-05T07:06:15.525Z,144
2017-02-05T07:07:25.251Z,148
2017-02-05T07:08:34.982Z,148
2017-02-05T07:09:44.710Z,160
2017-02-05T07:10:54.478Z,168
2017-02-05T07:12:04.211Z,172
2017-02-05T07:13:14.369Z,176
2017-02-05T07:14:23.662Z,184
2017-02-05T07:15:33.819Z,192
2017-02-05T07:16:43.152Z,196
2017-02-05T07:17:52.436Z,208
2017-02-05T07:19:02.599Z,208
2017-02-05T07:20:12.768Z,220
2017-02-05T07:21:22.483Z,224
2017-02-05T07:22:32.262Z,244
2017-02-05T07:23:41.982Z,276
2017-02-05T07:24:52.148Z,316
2017-02-05T07:26:01.438Z,368
2017-02-05T07:27:11.161Z,428
2017-02-05T07:28:21.237Z,472
2017-02-05T07:29:30.691Z,492
2017-02-05T07:30:42.004Z,516
2017-02-05T07:31:52.377Z,520
2017-02-05T07:33:04.494Z,564
2017-02-05T07:34:14.297Z,596
2017-02-05T07:35:25.172Z,664
2017-02-05T07:36:35.343Z,720
2017-02-05T07:37:45.677Z,828
2017-02-05T07:38:56.062Z,720
2017-02-05T07:40:06.444Z,648
2017-02-05T07:41:17.214Z,624
2017-02-05T07:42:28.318Z,652
2017-02-05T07:43:39.615Z,692
2017-02-05T07:44:51.562Z,656
2017-02-05T07:46:01.858Z,704
2017-02-05T07:47:13.055Z,748
2017-02-05T07:48:23.614Z,616
2017-02-05T07:49:33.901Z,552
2017-02-05T07:50:43.351Z,624
2017-02-05T07:51:53.126Z,588
2017-02-05T07:53:03.683Z,540
2017-02-05T07:54:16.147Z,480
2017-02-05T07:55:26.772Z,484
2017-02-05T07:56:37.622Z,464
2017-02-05T07:57:47.774Z,500
2017-02-05T07:58:57.177Z,524
2017-02-05T08:00:06.546Z,588
2017-02-05T08:01:16.773Z,592
2017-02-05T08:02:27.363Z,548
2017-02-05T08:03:38.368Z,652
2017-02-05T08:04:49.278Z,724
2017-02-05T08:05:59.192Z,752
2017-02-05T08:07:08.915Z,588
2017-02-05T08:08:19.511Z,492
2017-02-05T08:09:29.279Z,576
2017-02-05T08:10:39.005Z,584
2017-02-05T08:11:48.721Z,584
2017-02-05T08:12:58.018Z,620
2017-02-05T08:14:07.311Z,736
2017-02-05T08:15:17.081Z,620
2017-02-05T08:16:27.246Z,688
2017-02-05T08:17:36.972Z,740
2017-02-05T08:18:46.257Z,684
2017-02-05T08:19:55.975Z,656
2017-02-05T08:21:05.319Z,720
2017-02-05T08:22:17.543Z,700
2017-02-05T08:23:27.776Z,692
2017-02-05T08:24:39.526Z,760
2017-02-05T08:25:50.752Z,668
2017-02-05T08:27:01.524Z,712
2017-02-05T08:28:12.422Z,904
2017-02-05T08:29:23.407Z,1016
2017-02-05T08:30:34.533Z,1220
2017-02-05T08:31:44.278Z,1392
2017-02-05T08:32:53.619Z,1428
2017-02-05T08:34:02.912Z,1396
2017-02-05T08:35:12.646Z,1376
2017-02-05T08:36:22.367Z,1296
2017-02-05T08:37:32.539Z,1144
2017-02-05T08:38:42.311Z,1160
2017-02-05T08:39:52.506Z,1360
2017-02-05T08:41:01.789Z,1400
2017-02-05T08:42:12.213Z,1248
2017-02-05T08:43:21.496Z,1272
2017-02-05T08:44:31.265Z,1196
2017-02-05T08:45:41.099Z,1172
2017-02-05T08:46:50.947Z,1200
2017-02-05T08:48:01.553Z,1232
2017-02-05T08:49:11.279Z,1480
2017-02-05T08:50:21.049Z,1648
2017-02-05T08:51:30.777Z,1568
2017-02-05T08:52:40.499Z,1596
2017-02-05T08:53:50.653Z,1560
2017-02-05T08:54:59.945Z,1648
2017-02-05T08:56:09.709Z,1596
2017-02-05T08:57:19.426Z,1376
2017-02-05T08:58:28.715Z,1228
2017-02-05T08:59:39.318Z,1236
2017-02-05T09:00:49.047Z,1212
2017-02-05T09:01:58.926Z,1168
2017-02-05T09:03:08.660Z,984
2017-02-05T09:04:18.386Z,1104
2017-02-05T09:05:27.670Z,1080
2017-02-05T09:06:36.956Z,1172
2017-02-05T09:07:47.174Z,1260
2017-02-05T09:08:56.905Z,1308
2017-02-05T09:10:07.076Z,1280
2017-02-05T09:11:16.801Z,956
2017-02-05T09:12:26.102Z,760
2017-02-05T09:13:35.867Z,740
2017-02-05T09:14:45.157Z,760
2017-02-05T09:15:54.894Z,820
2017-02-05T09:17:04.619Z,868
2017-02-05T09:18:13.905Z,856
2017-02-05T09:19:23.790Z,940
2017-02-05T09:20:33.077Z,1032
2017-02-05T09:21:42.798Z,1136
2017-02-05T09:22:52.521Z,1084
2017-02-05T09:24:02.242Z,1144
2017-02-05T09:25:12.459Z,1128
2017-02-05T09:26:21.819Z,1048
2017-02-05T09:27:34.226Z,1008
2017-02-05T09:28:45.342Z,928
2017-02-05T09:29:56.013Z,960
2017-02-05T09:31:06.761Z,936
2017-02-05T09:32:18.373Z,976
2017-02-05T09:33:27.658Z,884
2017-02-05T09:34:38.553Z,860
2017-02-05T09:35:50.352Z,868
2017-02-05T09:37:01.999Z,900
2017-02-05T09:38:12.085Z,960
2017-02-05T09:39:21.372Z,976
2017-02-05T09:40:31.529Z,1072
2017-02-05T09:41:41.246Z,1088
2017-02-05T09:42:51.022Z,1096
2017-02-05T09:44:00.745Z,1172
2017-02-05T09:45:10.033Z,1220
2017-02-05T09:46:20.636Z,1188
2017-02-05T09:47:29.925Z,1168
2017-02-05T09:48:39.270Z,1196
2017-02-05T09:49:48.994Z,1224
2017-02-05T09:50:58.713Z,1096
2017-02-05T09:52:08.872Z,980
2017-02-05T09:53:18.155Z,996
2017-02-05T09:54:27.490Z,912
2017-02-05T09:55:37.663Z,868
2017-02-05T09:56:47.390Z,912
2017-02-05T09:57:57.115Z,952
2017-02-05T09:59:07.306Z,1056
2017-02-05T10:00:17.525Z,1124
2017-02-05T10:01:27.234Z,1088
2017-02-05T10:02:36.959Z,1116
2017-02-05T10:03:46.680Z,1156
2017-02-05T10:04:56.415Z,1260
2017-02-05T10:06:06.197Z,1244
2017-02-05T10:07:15.479Z,1196
2017-02-05T10:08:25.200Z,1112
2017-02-05T10:09:35.361Z,1052
2017-02-05T10:10:45.086Z,1016
2017-02-05T10:11:54.853Z,960
2017-02-05T10:13:05.020Z,884
2017-02-05T10:14:16.054Z,896
2017-02-05T10:15:25.782Z,924
2017-02-05T10:16:35.945Z,1056
2017-02-05T10:17:45.281Z,1080
2017-02-05T10:18:55.002Z,992
2017-02-05T10:20:04.293Z,1064
2017-02-05T10:21:13.573Z,1332
2017-02-05T10:22:22.857Z,1200
2017-02-05T10:23:33.074Z,1132
2017-02-05T10:24:42.364Z,1308
2017-02-05T10:25:52.081Z,1344
2017-02-05T10:27:01.811Z,1236
2017-02-05T10:28:11.098Z,1088
2017-02-05T10:29:20.869Z,1092
2017-02-05T10:30:30.602Z,1140
2017-02-05T10:31:39.896Z,1268
2017-02-05T10:32:49.617Z,1320
2017-02-05T10:33:59.345Z,1628
2017-02-05T10:35:09.567Z,2052
2017-02-05T10:36:18.861Z,1928
2017-02-05T10:37:28.584Z,1772
2017-02-05T10:38:38.330Z,1804
2017-02-05T10:39:48.068Z,1824
2017-02-05T10:40:57.412Z,1884
2017-02-05T10:42:06.696Z,1908
2017-02-05T10:43:16.420Z,1904
2017-02-05T10:44:26.145Z,1888
2017-02-05T10:45:35.434Z,2000
2017-02-05T10:46:45.215Z,2128
2017-02-05T10:47:55.870Z,1976
2017-02-05T10:49:06.288Z,1904
2017-02-05T10:50:17.205Z,1828
2017-02-05T10:51:27.602Z,1748
2017-02-05T10:52:38.619Z,1716
2017-02-05T10:53:49.512Z,1728
2017-02-05T10:54:59.943Z,1704
2017-02-05T10:56:10.348Z,1700
2017-02-05T10:57:21.272Z,1688
2017-02-05T10:58:32.270Z,1636
2017-02-05T10:59:42.174Z,1628
2017-02-05T11:00:52.592Z,1676
2017-02-05T11:02:02.370Z,1740
2017-02-05T11:03:11.660Z,1776
2017-02-05T11:04:21.439Z,1748
2017-02-05T11:05:31.168Z,1712
2017-02-05T11:06:41.339Z,1696
2017-02-05T11:07:51.060Z,1696
2017-02-05T11:09:00.349Z,1652
2017-02-05T11:10:09.694Z,1604
2017-02-05T11:11:19.424Z,1588
2017-02-05T11:12:28.716Z,1612
2017-02-05T11:13:38.449Z,1680
2017-02-05T11:14:48.176Z,1712
2017-02-05T11:15:57.962Z,1696
2017-02-05T11:17:07.290Z,1664
2017-02-05T11:18:17.018Z,1656
2017-02-05T11:19:26.756Z,1584
2017-02-05T11:20:36.485Z,1452
2017-02-05T11:21:46.710Z,1384
2017-02-05T11:22:56.888Z,1356
2017-02-05T11:24:06.184Z,1352
2017-02-05T11:25:16.349Z,1372
2017-02-05T11:26:25.647Z,1388
2017-02-05T11:27:35.860Z,1400
2017-02-05T11:28:46.020Z,1496
2017-02-05T11:29:55.299Z,1572
2017-02-05T11:31:04.591Z,1608
2017-02-05T11:32:13.912Z,1672
2017-02-05T11:33:23.684Z,1728
2017-02-05T11:34:33.530Z,1716
2017-02-05T11:35:43.705Z,1684
2017-02-05T11:36:53.000Z,1660
2017-02-05T11:38:02.294Z,1696
2017-02-05T11:39:11.632Z,1736
2017-02-05T11:40:20.916Z,1732
2017-02-05T11:41:31.534Z,1732
2017-02-05T11:42:41.268Z,1748
2017-02-05T11:43:50.993Z,1768
2017-02-05T11:45:00.769Z,1812
2017-02-05T11:46:10.923Z,1896
2017-02-05T11:47:20.648Z,2012
2017-02-05T11:48:30.373Z,2084
2017-02-05T11:49:39.658Z,2112
2017-02-05T11:50:49.427Z,2136
2017-02-05T11:52:00.033Z,2136
2017-02-05T11:53:10.210Z,2160
2017-02-05T11:54:19.500Z,2220
2017-02-05T11:55:29.677Z,2208
2017-02-05T11:56:39.018Z,2176
2017-02-05T11:57:48.323Z,2240
2017-02-05T11:58:58.055Z,2312
2017-02-05T12:00:07.781Z,2352
2017-02-05T12:01:17.074Z,2400
2017-02-05T12:02:26.419Z,2428
2017-02-05T12:03:36.576Z,2424
2017-02-05T12:04:46.743Z,2424
2017-02-05T12:05:56.035Z,2456
2017-02-05T12:07:05.365Z,2512
2017-02-05T12:08:14.702Z,2512
2017-02-05T12:09:24.866Z,2472
2017-02-05T12:10:34.151Z,2460
2017-02-05T12:11:44.321Z,2500
2017-02-05T12:12:53.614Z,2512
2017-02-05T12:14:02.951Z,2488
2017-02-05T12:15:13.135Z,2508
2017-02-05T12:16:22.869Z,2556
2017-02-05T12:17:32.161Z,2536
2017-02-05T12:18:41.884Z,2436
2017-02-05T12:19:52.106Z,2380
2017-02-05T12:21:01.398Z,2372
2017-02-05T12:22:11.562Z,2336
2017-02-05T12:23:21.748Z,2344
2017-02-05T12:24:32.356Z,2396
2017-02-05T12:25:41.695Z,2412
2017-02-05T12:26:51.867Z,2420
2017-02-05T12:28:02.037Z,2448
2017-02-05T12:29:12.214Z,2428
2017-02-05T12:30:22.375Z,2372
2017-02-05T12:31:32.152Z,2352
2017-02-05T12:32:41.891Z,2420
2017-02-05T12:33:51.627Z,2540
2017-02-05T12:35:00.914Z,2680
2017-02-05T12:36:10.641Z,2780
2017-02-05T12:37:20.420Z,2792
2017-02-05T12:38:30.585Z,2704
2017-02-05T12:39:40.309Z,2588
2017-02-05T12:40:50.035Z,2456
2017-02-05T12:41:59.323Z,2344
2017-02-05T12:43:09.106Z,2248
2017-02-05T12:44:19.279Z,2192
2017-02-05T12:45:28.560Z,2192
2017-02-05T12:46:38.717Z,2212
2017-02-05T12:47:48.010Z,2248
2017-02-05T12:48:58.220Z,2244
2017-02-05T12:50:07.956Z,2196
2017-02-05T12:51:17.688Z,2148
2017-02-05T12:52:27.851Z,2076
2017-02-05T12:53:37.573Z,2040
2017-02-05T12:54:47.809Z,1988
2017-02-05T12:55:57.538Z,1924
2017-02-05T12:57:07.712Z,1896
2017-02-05T12:58:17.014Z,1880
2017-02-05T12:59:26.743Z,1872
2017-02-05T13:00:36.080Z,1916
2017-02-05T13:01:45.809Z,1936
2017-02-05T13:02:55.097Z,1944
2017-02-05T13:04:04.826Z,1936
2017-02-05T13:05:15.431Z,1888
2017-02-05T13:06:24.773Z,1856
2017-02-05T13:07:34.060Z,1844
2017-02-05T13:08:43.784Z,1844
2017-02-05T13:09:54.389Z,1792
2017-02-05T13:11:03.679Z,1740
2017-02-05T13:12:13.455Z,1740
2017-02-05T13:13:23.179Z,1760
2017-02-05T13:14:32.902Z,1808
2017-02-05T13:15:42.187Z,1900
2017-02-05T13:16:51.910Z,1992
2017-02-05T13:18:02.118Z,2072
2017-02-05T13:19:12.285Z,2116
2017-02-05T13:20:22.013Z,2104
2017-02-05T13:21:32.188Z,2036
2017-02-05T13:22:42.351Z,2016
2017-02-05T13:23:51.691Z,2040
2017-02-05T13:25:01.425Z,2020
2017-02-05T13:26:11.162Z,2028
2017-02-05T13:27:20.462Z,2084
2017-02-05T13:28:30.627Z,2096
2017-02-05T13:29:40.402Z,2072
2017-02-05T13:30:50.134Z,2120
2017-02-05T13:31:59.867Z,2228
2017-02-05T13:33:09.601Z,2288
2017-02-05T13:34:19.784Z,2260
2017-02-05T13:35:30.868Z,2276
2017-02-05T13:36:40.593Z,2412
2017-02-05T13:37:51.489Z,2532
2017-02-05T13:39:00.818Z,2560
2017-02-05T13:40:10.108Z,2504
2017-02-05T13:41:19.884Z,2392
2017-02-05T13:42:29.615Z,2336
2017-02-05T13:43:39.352Z,2340
2017-02-05T13:44:49.520Z,2364
2017-02-05T13:45:58.814Z,2388
2017-02-05T13:47:08.741Z,2396
2017-02-05T13:48:18.476Z,2352
2017-02-05T13:49:28.208Z,2312
2017-02-05T13:50:37.933Z,2408
2017-02-05T13:51:47.227Z,2576
2017-02-05T13:52:57.441Z,2620
2017-02-05T13:54:06.738Z,2596
2017-02-05T13:55:16.913Z,2548
2017-02-05T13:56:26.644Z,2588
2017-02-05T13:57:36.368Z,2588
2017-02-05T13:58:45.710Z,2340
2017-02-05T13:59:54.999Z,2132
2017-02-05T14:01:04.732Z,2412
2017-02-05T14:02:15.338Z,2512
2017-02-05T14:03:25.063Z,2484
2017-02-05T14:04:35.286Z,2476
2017-02-05T14:05:45.018Z,2472
2017-02-05T14:06:54.751Z,2416
2017-02-05T14:08:04.474Z,2112
2017-02-05T14:09:14.206Z,2052
2017-02-05T14:10:23.585Z,1976
2017-02-05T14:11:34.191Z,2016
2017-02-05T14:12:43.922Z,2080
2017-02-05T14:13:53.656Z,1904
2017-02-05T14:15:03.390Z,1900
2017-02-05T14:16:12.730Z,1880
2017-02-05T14:17:22.896Z,1928
2017-02-05T14:18:33.510Z,1852
2017-02-05T14:19:42.808Z,1868
2017-02-05T14:20:52.529Z,1836
2017-02-05T14:22:02.450Z,1756
2017-02-05T14:23:12.177Z,1760
2017-02-05T14:24:22.341Z,1772
2017-02-05T14:25:32.070Z,1736
2017-02-05T14:26:41.363Z,1716
2017-02-05T14:27:51.308Z,1644
2017-02-05T14:29:01.485Z,1532
2017-02-05T14:30:11.662Z,1376
2017-02-05T14:31:20.959Z,1280
2017-02-05T14:32:30.698Z,1232
2017-02-05T14:33:40.044Z,1232
2017-02-05T14:34:49.770Z,1308
2017-02-05T14:35:59.059Z,1356
2017-02-05T14:37:09.229Z,1284
2017-02-05T14:38:18.516Z,1188
2017-02-05T14:39:28.293Z,1112
2017-02-05T14:40:38.019Z,1064
2017-02-05T14:41:47.746Z,1052
2017-02-05T14:42:57.034Z,1040
2017-02-05T14:44:06.759Z,1016
2017-02-05T14:45:16.980Z,1000
2017-02-05T14:46:26.720Z,988
2017-02-05T14:47:36.443Z,984
2017-02-05T14:48:45.729Z,992
2017-02-05T14:49:55.020Z,1016
2017-02-05T14:51:04.791Z,1068
2017-02-05T14:52:14.084Z,1080
2017-02-05T14:53:23.383Z,1032
2017-02-05T14:54:33.552Z,980
2017-02-05T14:55:43.279Z,896
2017-02-05T14:56:53.064Z,948
2017-02-05T14:58:03.233Z,956
2017-02-05T14:59:12.966Z,884
2017-02-05T15:00:22.275Z,860
2017-02-05T15:01:32.009Z,836
2017-02-05T15:02:41.506Z,860
2017-02-05T15:03:50.842Z,764
2017-02-05T15:05:02.979Z,684
2017-02-05T15:06:15.004Z,720
2017-02-05T15:07:30.252Z,684
2017-02-05T15:08:44.886Z,672
2017-02-05T15:09:58.400Z,556
2017-02-05T15:11:10.248Z,672
2017-02-05T15:12:22.697Z,664
2017-02-05T15:13:34.395Z,600
2017-02-05T15:14:47.743Z,520
2017-02-05T15:15:58.669Z,464
2017-02-05T15:17:10.262Z,440
2017-02-05T15:18:21.797Z,380
2017-02-05T15:19:32.732Z,356
2017-02-05T15:20:45.742Z,344
2017-02-05T15:21:57.108Z,348
2017-02-05T15:23:09.184Z,312
2017-02-05T15:24:21.115Z,284
2017-02-05T15:25:33.294Z,264
2017-02-05T15:26:44.950Z,248
2017-02-05T15:27:56.746Z,240
2017-02-05T15:29:07.862Z,228
2017-02-05T15:30:17.847Z,228
2017-02-05T15:31:31.152Z,224
2017-02-05T15:32:43.765Z,220
2017-02-05T15:33:59.227Z,208
2017-02-05T15:35:11.044Z,200
2017-02-05T15:36:23.316Z,196
2017-02-05T15:37:35.494Z,192
2017-02-05T15:38:50.648Z,188
2017-02-05T15:40:02.378Z,192
2017-02-05T15:41:15.173Z,196
2017-02-05T15:42:29.563Z,196
2017-02-05T15:43:40.824Z,196
2017-02-05T15:44:54.249Z,192
2017-02-05T15:46:09.262Z,188
2017-02-05T15:47:20.852Z,180
2017-02-05T15:48:35.196Z,172
2017-02-05T15:49:47.752Z,168
2017-02-05T15:51:00.008Z,160
2017-02-05T15:52:13.214Z,156
2017-02-05T15:53:25.698Z,144
2017-02-05T15:54:36.735Z,132
2017-02-05T15:55:50.444Z,128
2017-02-05T15:57:02.953Z,120
2017-02-05T15:58:15.698Z,112
2017-02-05T15:59:30.124Z,108
2017-02-05T16:00:44.897Z,100
2017-02-05T16:01:57.582Z,96
2017-02-05T16:03:08.759Z,84
2017-02-05T16:04:19.901Z,80
2017-02-05T16:05:31.269Z,76
2017-02-05T16:06:42.815Z,72
2017-02-05T16:07:54.724Z,64
2017-02-05T16:09:06.745Z,60
2017-02-05T16:10:20.371Z,56
2017-02-05T16:11:31.288Z,52
2017-02-05T16:12:43.194Z,48
2017-02-05T16:13:55.706Z,44
2017-02-05T16:15:06.295Z,40
2017-02-05T16:16:17.921Z,36
2017-02-05T16:17:29.314Z,36
2017-02-05T16:18:42.351Z,32
2017-02-05T16:19:54.341Z,24
2017-02-05T16:21:08.758Z,24